Terminal Aerodrome Forecast
Issued by NWS

Home | Current Version | Previous Version | Text Only | Print | Product List | Glossary On
Versions: 1 2 3 4 5 6 7 8 9 10 11 12 13 14 15 16
970
FTUS46 KLOX 241743
TAFLGB
TAF
KLGB 241743Z 2418/2518 18008KT P6SM SCT012
     FM242100 23008KT P6SM SKC
     FM250500 VRB05KT P6SM SCT008
     FM250800 12005KT P6SM BKN008
     FM251100 13008KT P6SM OVC012
     FM251600 17006KT P6SM BKN015=

USA.gov is the U.S. government's official web portal to all federal, state and local government web resources and services.